Time;durP1;ratioP1;P1;durP2;ratioP2;P2;SDS_P1;SDS_P2;PMS_P1;PMS_P2;Temp;Humidity;BMP_temperature;BMP_pressure;BME280_temperature;BME280_humidity;BME280_pressure;Samples;Min_cycle;Max_cycle;Signal;HPM_P1;HPM_P2
2023/09/14 00:01:20;;;;;;;1.87;1.47;;;25.00;88.20;;;;;;6157293;23;20419;-95
2023/09/14 00:03:48;;;;;;;1.40;1.30;;;24.90;88.10;;;;;;6157008;23;20482;-95
2023/09/14 00:06:15;;;;;;;1.30;1.20;;;24.90;88.90;;;;;;6156918;23;20471;-92
2023/09/14 00:08:43;;;;;;;2.13;1.17;;;24.90;88.10;;;;;;6157085;23;20428;-92
2023/09/14 00:11:09;;;;;;;1.83;1.20;;;24.90;88.00;;;;;;6156579;23;20723;-94
2023/09/14 00:13:36;;;;;;;2.60;1.10;;;24.90;88.10;;;;;;6157148;23;20394;-94
2023/09/14 00:16:03;;;;;;;1.80;1.40;;;24.90;88.00;;;;;;6157079;23;20495;-93
2023/09/14 00:18:30;;;;;;;1.97;1.10;;;24.90;88.00;;;;;;6156690;23;20407;-94
2023/09/14 00:20:58;;;;;;;1.70;1.23;;;24.90;87.90;;;;;;6157970;23;20408;-92
2023/09/14 00:23:25;;;;;;;1.40;1.07;;;24.90;87.90;;;;;;6156956;23;20483;-95
2023/09/14 00:25:53;;;;;;;1.60;1.43;;;24.90;87.80;;;;;;6156445;23;20449;-94
2023/09/14 00:28:20;;;;;;;1.87;0.90;;;24.90;87.80;;;;;;6157096;23;20428;-93
2023/09/14 00:30:51;;;;;;;1.20;0.90;;;24.90;87.70;;;;;;6156947;23;20483;-95
2023/09/14 00:33:17;;;;;;;1.30;1.20;;;24.90;87.80;;;;;;6156695;23;20879;-92
2023/09/14 00:35:46;;;;;;;1.70;1.20;;;24.80;87.60;;;;;;6156488;23;20490;-94
2023/09/14 00:38:14;;;;;;;1.40;1.20;;;24.90;87.80;;;;;;6156714;23;20800;-93
2023/09/14 00:40:41;;;;;;;1.17;0.93;;;24.90;87.80;;;;;;6156848;23;20399;-93
2023/09/14 00:43:08;;;;;;;1.13;0.97;;;24.80;87.60;;;;;;6156657;23;20400;-94
2023/09/14 00:45:36;;;;;;;1.70;1.00;;;24.80;87.60;;;;;;6157802;23;20435;-92
2023/09/14 00:48:04;;;;;;;1.30;1.00;;;24.80;87.80;;;;;;6156681;23;20458;-93
2023/09/14 00:50:31;;;;;;;1.53;1.43;;;24.80;87.90;;;;;;6156821;23;20908;-93
2023/09/14 00:53:02;;;;;;;1.73;1.10;;;24.90;87.80;;;;;;6156470;23;20486;-92
2023/09/14 00:55:31;;;;;;;1.20;1.03;;;24.80;87.60;;;;;;6156479;23;20455;-94
2023/09/14 00:57:59;;;;;;;1.23;0.90;;;24.80;87.70;;;;;;6156517;23;20480;-93
2023/09/14 01:00:26;;;;;;;1.30;1.10;;;24.80;87.90;;;;;;6156388;23;20400;-93
2023/09/14 01:02:56;;;;;;;1.20;1.00;;;24.80;87.70;;;;;;6157060;23;20406;-92
2023/09/14 01:05:25;;;;;;;1.50;1.20;;;24.80;87.60;;;;;;6156156;23;20396;-94
2023/09/14 01:07:52;;;;;;;2.20;1.00;;;24.80;87.80;;;;;;6156294;23;20894;-93
2023/09/14 01:10:19;;;;;;;1.30;1.07;;;24.80;87.80;;;;;;6156331;23;20487;-93
2023/09/14 01:12:48;;;;;;;1.30;1.20;;;24.80;87.80;;;;;;6156134;23;20442;-93
2023/09/14 01:15:20;;;;;;;1.40;1.30;;;24.80;87.80;;;;;;6156252;23;20483;-93
2023/09/14 01:17:57;;;;;;;1.40;1.17;;;24.80;87.60;;;;;;6156643;23;20990;-94
2023/09/14 01:20:49;;;;;;;1.40;1.20;;;24.80;87.70;;;;;;6156399;23;20482;-93
2023/09/14 01:23:28;;;;;;;2.80;1.40;;;24.80;87.50;;;;;;6156614;23;20500;-94
2023/09/14 01:25:57;;;;;;;1.60;1.50;;;24.80;87.40;;;;;;6157496;23;20443;-94
2023/09/14 01:28:24;;;;;;;1.40;1.10;;;24.80;87.70;;;;;;6155997;23;20899;-93
2023/09/14 01:30:51;;;;;;;1.20;1.10;;;24.80;87.90;;;;;;6156469;23;20490;-93
2023/09/14 01:33:20;;;;;;;1.17;1.07;;;24.80;88.60;;;;;;6156144;23;20989;-94
2023/09/14 01:35:53;;;;;;;2.80;1.10;;;24.80;87.80;;;;;;6156044;23;20470;-94
2023/09/14 01:38:20;;;;;;;1.40;1.00;;;24.80;87.80;;;;;;6156426;23;20424;-94
2023/09/14 01:40:49;;;;;;;1.80;1.10;;;24.80;87.70;;;;;;6155995;23;20403;-93
2023/09/14 01:43:18;;;;;;;1.10;0.90;;;24.80;87.80;;;;;;6156479;23;20400;-94
2023/09/14 01:45:45;;;;;;;1.20;1.10;;;24.80;87.90;;;;;;6156110;23;20400;-94
2023/09/14 01:48:15;;;;;;;1.53;1.07;;;24.80;87.80;;;;;;6156444;23;20486;-93
2023/09/14 01:50:42;;;;;;;1.40;1.20;;;24.80;88.10;;;;;;6158115;23;20407;-92
2023/09/14 01:53:09;;;;;;;1.37;1.07;;;24.80;87.80;;;;;;6158078;23;20900;-93
2023/09/14 01:55:36;;;;;;;4.37;1.30;;;24.80;88.50;;;;;;6158118;23;20492;-94
2023/09/14 01:58:03;;;;;;;1.40;1.30;;;24.80;88.00;;;;;;6158449;23;20442;-94
2023/09/14 02:00:32;;;;;;;1.73;1.00;;;24.80;87.70;;;;;;6158020;23;20396;-93
2023/09/14 02:02:59;;;;;;;1.50;1.40;;;24.80;87.80;;;;;;6158035;23;20404;-94
2023/09/14 02:05:25;;;;;;;1.67;1.20;;;24.80;87.50;;;;;;6158166;23;20403;-93
2023/09/14 02:07:52;;;;;;;1.17;1.00;;;24.80;87.40;;;;;;6158068;23;20538;-92
2023/09/14 02:10:21;;;;;;;1.10;0.97;;;24.80;87.70;;;;;;6158221;23;20490;-93
2023/09/14 02:12:48;;;;;;;1.20;1.00;;;24.80;87.80;;;;;;6157810;23;20442;-93
2023/09/14 02:15:15;;;;;;;1.43;1.10;;;24.70;87.70;;;;;;6157991;23;20491;-92
2023/09/14 02:17:43;;;;;;;2.13;1.00;;;24.70;87.60;;;;;;6157845;23;20410;-92
2023/09/14 02:20:11;;;;;;;1.27;0.93;;;24.70;87.60;;;;;;6158233;23;20410;-92
2023/09/14 02:22:38;;;;;;;1.20;1.00;;;24.70;87.80;;;;;;6157772;23;20510;-94
2023/09/14 02:25:06;;;;;;;1.20;1.10;;;24.70;87.60;;;;;;6158151;23;20490;-92
2023/09/14 02:27:34;;;;;;;2.27;1.33;;;24.70;87.60;;;;;;6157719;23;20439;-94
2023/09/14 02:30:00;;;;;;;1.23;1.10;;;24.70;88.00;;;;;;6157898;23;20480;-94
2023/09/14 02:32:28;;;;;;;3.90;1.00;;;24.70;87.60;;;;;;6158025;23;20482;-94
2023/09/14 02:35:09;;;;;;;1.27;1.17;;;24.70;87.70;;;;;;6157989;23;20408;-92
2023/09/14 02:37:36;;;;;;;1.20;1.03;;;24.70;88.10;;;;;;6158038;23;20438;-92
2023/09/14 02:40:06;;;;;;;1.40;1.13;;;24.70;87.80;;;;;;6157892;23;20459;-93
2023/09/14 02:42:34;;;;;;;1.10;0.97;;;24.70;87.80;;;;;;6157981;23;20407;-93
2023/09/14 02:45:01;;;;;;;1.30;1.03;;;24.70;88.10;;;;;;6158018;23;20478;-95
2023/09/14 02:47:28;;;;;;;1.40;1.30;;;24.70;88.20;;;;;;6157675;23;20439;-94
2023/09/14 02:49:54;;;;;;;1.43;1.00;;;24.70;87.90;;;;;;6157515;23;20407;-94
2023/09/14 02:52:22;;;;;;;1.93;1.13;;;24.70;88.00;;;;;;6157879;23;20490;-94
2023/09/14 02:54:49;;;;;;;1.10;1.00;;;24.70;88.20;;;;;;6157480;23;20439;-95
2023/09/14 02:57:16;;;;;;;2.33;1.20;;;24.70;88.00;;;;;;6157491;23;20482;-94
2023/09/14 02:59:43;;;;;;;1.50;0.90;;;24.70;88.10;;;;;;6157522;23;20740;-91
2023/09/14 03:02:10;;;;;;;1.20;1.00;;;24.70;88.10;;;;;;6156802;23;20862;-92
2023/09/14 03:04:37;;;;;;;1.10;1.00;;;24.70;88.20;;;;;;6157533;23;20803;-93
2023/09/14 03:12:19;;;;;;;1.17;0.93;;;24.70;88.50;;;;;;6160002;23;20451;-96
2023/09/14 03:14:57;;;;;;;1.93;1.40;;;24.70;88.40;;;;;;6157831;23;20404;-95
2023/09/14 03:17:24;;;;;;;1.20;1.10;;;24.60;87.60;;;;;;6158327;23;20402;-96
2023/09/14 03:19:57;;;;;;;2.50;1.50;;;24.60;88.00;;;;;;6159212;23;20463;-96
2023/09/14 03:22:28;;;;;;;1.77;1.20;;;24.60;87.40;;;;;;6157823;23;20411;-96
2023/09/14 03:25:02;;;;;;;5.23;2.00;;;24.60;87.80;;;;;;6158501;23;20435;-95
2023/09/14 03:27:31;;;;;;;4.13;2.00;;;24.60;83.60;;;;;;6163745;23;20470;-96
2023/09/14 03:30:00;;;;;;;7.80;1.80;;;24.50;83.40;;;;;;6159654;23;20403;-95
2023/09/14 03:32:27;;;;;;;8.23;1.80;;;24.40;84.20;;;;;;6135335;23;20400;-90
2023/09/14 03:34:54;;;;;;;5.93;2.03;;;24.40;83.30;;;;;;6157235;23;20896;-89
2023/09/14 03:37:21;;;;;;;2.93;1.40;;;24.30;82.30;;;;;;6156345;23;20976;-90
2023/09/14 03:39:47;;;;;;;4.40;1.73;;;24.30;84.20;;;;;;6154902;23;20507;-89
2023/09/14 03:42:14;;;;;;;2.60;1.30;;;24.30;85.40;;;;;;6155270;23;20500;-89
2023/09/14 03:44:42;;;;;;;1.97;1.30;;;24.40;86.30;;;;;;6157090;23;20832;-89
2023/09/14 03:47:09;;;;;;;1.67;1.23;;;24.40;86.90;;;;;;6156866;23;20482;-89
2023/09/14 03:49:36;;;;;;;1.33;1.17;;;24.50;87.10;;;;;;6157145;23;20418;-88
2023/09/14 03:52:03;;;;;;;2.13;1.20;;;24.50;87.10;;;;;;6157098;23;20408;-88
2023/09/14 03:54:30;;;;;;;1.97;1.10;;;24.50;87.30;;;;;;6156759;23;20896;-89
2023/09/14 03:56:57;;;;;;;1.50;1.20;;;24.50;87.30;;;;;;6157057;23;20494;-88
2023/09/14 03:59:24;;;;;;;1.43;1.00;;;24.60;87.10;;;;;;6156611;23;20908;-89
2023/09/14 04:01:52;;;;;;;1.40;1.23;;;24.50;87.20;;;;;;6156571;23;20478;-89
2023/09/14 04:04:19;;;;;;;1.87;1.10;;;24.50;87.10;;;;;;6156998;23;20399;-89
2023/09/14 04:06:47;;;;;;;2.47;1.20;;;24.50;87.10;;;;;;6156916;23;20436;-88
2023/09/14 04:09:14;;;;;;;2.73;1.20;;;24.50;87.40;;;;;;6156816;23;20420;-89
2023/09/14 04:11:41;;;;;;;1.87;1.10;;;24.50;87.20;;;;;;6156668;23;20399;-89
2023/09/14 04:14:08;;;;;;;3.03;1.00;;;24.50;87.10;;;;;;6156494;23;20963;-88
2023/09/14 04:16:34;;;;;;;2.07;1.33;;;24.50;87.20;;;;;;6156852;23;20408;-89
2023/09/14 04:19:03;;;;;;;3.23;1.30;;;24.50;87.10;;;;;;6156781;23;20495;-88
2023/09/14 04:21:30;;;;;;;2.33;1.10;;;24.50;87.20;;;;;;6156872;23;20406;-89
2023/09/14 04:23:56;;;;;;;3.03;1.17;;;24.50;87.30;;;;;;6156670;23;20404;-88
2023/09/14 04:26:26;;;;;;;2.63;1.10;;;24.50;87.30;;;;;;6156792;23;20395;-88
2023/09/14 04:28:53;;;;;;;1.73;1.00;;;24.50;87.30;;;;;;6156495;23;20428;-89
2023/09/14 04:31:20;;;;;;;4.47;1.60;;;24.50;87.30;;;;;;6156310;23;20930;-88
2023/09/14 04:33:47;;;;;;;1.93;1.30;;;24.50;87.30;;;;;;6156600;23;20498;-88
2023/09/14 04:36:16;;;;;;;2.03;1.20;;;24.50;87.10;;;;;;6156286;23;20423;-88
2023/09/14 04:38:42;;;;;;;3.47;1.30;;;24.50;87.30;;;;;;6155898;23;20951;-88
2023/09/14 04:41:09;;;;;;;1.50;1.20;;;24.50;87.20;;;;;;6156199;23;20414;-88
2023/09/14 04:43:37;;;;;;;1.60;1.40;;;24.50;87.30;;;;;;6156228;23;20434;-88
2023/09/14 04:46:05;;;;;;;2.60;1.30;;;24.50;87.40;;;;;;6156221;23;20408;-89
2023/09/14 04:48:32;;;;;;;1.40;1.20;;;24.50;87.30;;;;;;6156505;23;20470;-88
2023/09/14 04:50:59;;;;;;;1.53;1.10;;;24.70;87.70;;;;;;6156488;23;20494;-88
2023/09/14 04:53:28;;;;;;;2.30;1.10;;;24.60;87.30;;;;;;6156455;23;20491;-88
2023/09/14 04:55:55;;;;;;;3.20;1.40;;;24.50;87.20;;;;;;6156415;23;20474;-88
2023/09/14 04:58:22;;;;;;;1.30;1.10;;;24.50;87.30;;;;;;6156492;23;20490;-89
2023/09/14 05:00:49;;;;;;;1.77;1.47;;;24.50;88.30;;;;;;6156067;23;20422;-88
2023/09/14 05:03:16;;;;;;;2.03;1.30;;;24.50;88.30;;;;;;6156557;23;20487;-88
2023/09/14 05:05:43;;;;;;;1.50;1.30;;;24.50;87.30;;;;;;6156420;23;20726;-88
2023/09/14 05:08:10;;;;;;;2.07;1.60;;;24.50;88.10;;;;;;6156289;23;20477;-88
2023/09/14 05:10:38;;;;;;;1.60;1.30;;;24.50;87.30;;;;;;6156322;23;20495;-88
2023/09/14 05:13:05;;;;;;;1.70;1.20;;;24.60;87.40;;;;;;6155903;23;20490;-88
2023/09/14 05:15:32;;;;;;;1.70;1.30;;;24.50;87.30;;;;;;6156057;23;20411;-88
2023/09/14 05:17:59;;;;;;;1.60;1.10;;;24.50;87.50;;;;;;6156336;23;20399;-88
2023/09/14 05:20:26;;;;;;;1.93;1.50;;;24.50;87.30;;;;;;6156243;23;20400;-89
2023/09/14 05:22:53;;;;;;;2.67;1.30;;;24.50;87.40;;;;;;6156266;23;20402;-88
2023/09/14 05:25:20;;;;;;;1.20;1.03;;;24.50;87.40;;;;;;6155912;23;20395;-89
2023/09/14 05:27:48;;;;;;;2.83;1.30;;;24.50;87.30;;;;;;6155747;23;20498;-89
2023/09/14 05:30:15;;;;;;;1.30;1.00;;;24.50;87.40;;;;;;6156148;23;20484;-88
2023/09/14 05:32:42;;;;;;;1.20;1.10;;;24.50;87.40;;;;;;6156306;23;20428;-88
2023/09/14 05:35:09;;;;;;;1.63;1.30;;;24.50;87.20;;;;;;6156225;23;20402;-88
2023/09/14 05:37:36;;;;;;;1.40;1.20;;;24.50;87.40;;;;;;6156090;23;20407;-88
2023/09/14 05:40:09;;;;;;;1.40;1.00;;;24.50;87.50;;;;;;6156181;23;20403;-89
2023/09/14 05:42:37;;;;;;;1.20;1.00;;;24.50;87.40;;;;;;6156358;23;20416;-88
2023/09/14 05:45:07;;;;;;;2.80;1.00;;;24.50;87.40;;;;;;6156262;23;20411;-88
2023/09/14 05:47:33;;;;;;;2.67;1.30;;;24.50;87.60;;;;;;6156055;23;20769;-88
2023/09/14 05:50:00;;;;;;;1.73;1.40;;;24.50;87.60;;;;;;6156154;23;20407;-88
2023/09/14 05:52:28;;;;;;;2.57;1.10;;;24.50;87.50;;;;;;6156033;23;20414;-88
2023/09/14 05:54:55;;;;;;;1.10;0.90;;;24.50;87.40;;;;;;6155912;23;20408;-88
2023/09/14 05:57:22;;;;;;;1.40;1.20;;;24.50;87.40;;;;;;6156305;23;20495;-89
2023/09/14 05:59:49;;;;;;;1.43;1.33;;;24.60;87.60;;;;;;6156133;23;20410;-89
2023/09/14 06:02:18;;;;;;;1.67;1.10;;;24.50;87.30;;;;;;6156278;23;20482;-89
2023/09/14 06:04:45;;;;;;;5.47;1.30;;;24.50;87.50;;;;;;6155689;23;20938;-88
2023/09/14 06:07:12;;;;;;;1.40;1.10;;;24.50;87.50;;;;;;6156077;23;20404;-88
2023/09/14 06:09:39;;;;;;;3.23;1.67;;;24.50;87.50;;;;;;6155596;23;20519;-88
2023/09/14 06:12:06;;;;;;;1.40;1.20;;;24.60;87.50;;;;;;6156106;23;20411;-88
2023/09/14 06:14:34;;;;;;;1.50;1.20;;;24.50;87.50;;;;;;6156053;23;20410;-88
2023/09/14 06:17:00;;;;;;;1.50;1.30;;;24.50;87.40;;;;;;6155547;23;20444;-88
2023/09/14 06:19:29;;;;;;;1.73;1.10;;;24.50;87.40;;;;;;6155703;23;20888;-88
2023/09/14 06:21:55;;;;;;;1.53;1.40;;;24.50;87.20;;;;;;6155965;23;20400;-88
2023/09/14 06:24:22;;;;;;;1.40;1.23;;;24.50;87.20;;;;;;6156086;23;20492;-88
2023/09/14 06:26:50;;;;;;;1.83;1.40;;;24.50;87.30;;;;;;6155662;23;20399;-88
2023/09/14 06:29:17;;;;;;;1.20;1.03;;;24.50;87.30;;;;;;6155490;23;20455;-88
2023/09/14 06:31:44;;;;;;;1.30;1.03;;;24.50;87.30;;;;;;6155665;23;20726;-88
2023/09/14 06:34:11;;;;;;;1.50;1.40;;;24.50;87.40;;;;;;6155847;23;20407;-88
2023/09/14 06:36:39;;;;;;;2.27;1.10;;;24.50;87.30;;;;;;6157526;23;20486;-89
2023/09/14 06:39:06;;;;;;;1.10;1.00;;;24.50;87.30;;;;;;6157358;23;20419;-88
2023/09/14 06:41:33;;;;;;;1.50;1.33;;;24.50;87.30;;;;;;6157395;23;20937;-89
2023/09/14 06:44:00;;;;;;;2.17;1.37;;;24.50;87.00;;;;;;6157274;23;20514;-88
2023/09/14 06:46:27;;;;;;;1.80;1.20;;;24.50;87.30;;;;;;6157739;23;20490;-88
2023/09/14 06:48:54;;;;;;;1.20;1.10;;;24.50;87.20;;;;;;6157646;23;20507;-88
2023/09/14 06:51:20;;;;;;;1.30;1.00;;;24.50;87.20;;;;;;6157263;23;20922;-88
2023/09/14 06:53:50;;;;;;;1.40;1.23;;;24.50;87.30;;;;;;6157479;23;20421;-88
2023/09/14 06:56:17;;;;;;;1.30;1.20;;;24.50;87.40;;;;;;6157586;23;20494;-88
2023/09/14 06:58:44;;;;;;;1.87;1.20;;;24.50;87.20;;;;;;6157162;23;20488;-88
2023/09/14 07:01:11;;;;;;;1.40;1.27;;;24.50;87.10;;;;;;6157266;23;20404;-89
2023/09/14 07:03:38;;;;;;;1.20;0.90;;;24.50;87.00;;;;;;6157255;23;20447;-88
2023/09/14 07:06:05;;;;;;;1.87;1.43;;;24.50;87.10;;;;;;6157510;23;20430;-89
2023/09/14 07:08:31;;;;;;;3.10;1.83;;;24.60;86.80;;;;;;6157383;23;20562;-88
2023/09/14 07:11:00;;;;;;;1.40;1.30;;;24.70;87.10;;;;;;6157476;23;20400;-88
2023/09/14 07:13:26;;;;;;;2.30;1.33;;;24.60;86.90;;;;;;6157510;23;20494;-88
2023/09/14 07:15:54;;;;;;;1.60;1.20;;;24.60;86.60;;;;;;6157327;23;20495;-89
2023/09/14 07:18:27;;;;;;;1.80;1.50;;;24.50;86.60;;;;;;6157149;23;20414;-88
2023/09/14 07:20:57;;;;;;;2.80;1.50;;;24.60;86.70;;;;;;6156947;23;20408;-88
2023/09/14 07:23:25;;;;;;;1.63;1.30;;;24.60;86.40;;;;;;6157429;23;20930;-88
2023/09/14 07:25:52;;;;;;;2.47;1.57;;;24.60;86.50;;;;;;6157536;23;20731;-88
2023/09/14 07:28:21;;;;;;;1.97;1.50;;;24.60;86.40;;;;;;6157057;23;20451;-88
2023/09/14 07:30:50;;;;;;;1.50;1.20;;;24.60;86.30;;;;;;6157285;23;20726;-88
2023/09/14 07:33:17;;;;;;;1.77;1.40;;;24.60;86.30;;;;;;6157211;23;20407;-89
2023/09/14 07:35:45;;;;;;;2.50;1.20;;;24.60;87.10;;;;;;6157169;23;20491;-88
2023/09/14 07:38:13;;;;;;;1.43;1.33;;;24.60;87.10;;;;;;6157284;23;20424;-88
2023/09/14 07:40:41;;;;;;;1.33;1.00;;;24.60;86.20;;;;;;6157190;23;20511;-89
2023/09/14 07:43:07;;;;;;;1.77;1.47;;;24.60;86.30;;;;;;6157171;23;20456;-88
2023/09/14 07:45:37;;;;;;;2.67;1.60;;;24.60;86.20;;;;;;6157183;23;20419;-88
2023/09/14 07:48:07;;;;;;;1.20;0.97;;;24.60;86.10;;;;;;6156731;23;20432;-88
2023/09/14 07:50:39;;;;;;;1.83;1.50;;;24.60;86.10;;;;;;6157042;23;20415;-88
2023/09/14 07:53:05;;;;;;;1.40;1.00;;;24.70;86.30;;;;;;6157195;23;20392;-88
2023/09/14 07:55:32;;;;;;;1.40;1.10;;;24.70;86.30;;;;;;6156961;23;20438;-88
2023/09/14 07:57:59;;;;;;;1.40;1.30;;;24.70;87.10;;;;;;6156988;23;20410;-89
2023/09/14 08:00:26;;;;;;;1.80;1.60;;;24.80;87.20;;;;;;6157015;23;20402;-88
2023/09/14 08:02:54;;;;;;;2.00;1.37;;;24.70;86.20;;;;;;6156626;23;20909;-89
2023/09/14 08:05:21;;;;;;;1.37;1.23;;;24.70;86.30;;;;;;6157019;23;20482;-88
2023/09/14 08:07:48;;;;;;;1.60;1.30;;;24.70;86.30;;;;;;6156302;23;20416;-89
2023/09/14 08:10:15;;;;;;;1.30;1.10;;;24.70;86.30;;;;;;6156628;23;20400;-88
2023/09/14 08:12:42;;;;;;;1.60;1.17;;;24.70;86.30;;;;;;6157011;23;20406;-88
2023/09/14 08:15:09;;;;;;;1.40;1.30;;;24.80;86.40;;;;;;6156432;23;20491;-89
2023/09/14 08:17:36;;;;;;;1.77;1.27;;;24.80;86.40;;;;;;6156895;23;20406;-88
2023/09/14 08:20:05;;;;;;;4.23;1.10;;;24.80;86.40;;;;;;6156832;23;20412;-88
2023/09/14 08:22:31;;;;;;;1.43;1.20;;;24.80;86.30;;;;;;6156384;23;20790;-88
2023/09/14 08:25:00;;;;;;;2.37;1.40;;;24.80;86.30;;;;;;6156814;23;20408;-88
2023/09/14 08:27:28;;;;;;;1.10;0.97;;;24.80;86.40;;;;;;6156537;23;20435;-88
2023/09/14 08:29:55;;;;;;;1.73;1.23;;;24.80;86.40;;;;;;6156687;23;20454;-88
2023/09/14 08:32:22;;;;;;;1.73;1.43;;;24.80;86.50;;;;;;6156716;23;20407;-88
2023/09/14 08:34:48;;;;;;;1.70;1.57;;;24.80;86.50;;;;;;6156291;23;20411;-88
2023/09/14 08:37:18;;;;;;;1.40;1.20;;;24.80;86.50;;;;;;6156907;23;20806;-89
2023/09/14 08:39:45;;;;;;;2.50;1.40;;;24.90;86.60;;;;;;6156339;23;20742;-89
2023/09/14 08:42:13;;;;;;;2.60;1.30;;;24.90;86.70;;;;;;6156405;23;20798;-89
2023/09/14 08:44:41;;;;;;;1.30;1.20;;;24.90;86.80;;;;;;6156647;23;20408;-89
2023/09/14 08:47:09;;;;;;;1.30;1.13;;;24.90;86.90;;;;;;6156713;23;20399;-88
2023/09/14 08:49:37;;;;;;;1.60;1.30;;;24.90;87.10;;;;;;6156424;23;20447;-89
2023/09/14 08:52:06;;;;;;;1.30;1.00;;;24.90;87.20;;;;;;6156563;23;20729;-89
2023/09/14 08:54:35;;;;;;;1.13;0.90;;;24.90;87.30;;;;;;6156362;23;20943;-88
2023/09/14 08:57:04;;;;;;;1.10;1.00;;;24.90;87.30;;;;;;6156121;23;20405;-89
2023/09/14 08:59:32;;;;;;;1.70;1.20;;;24.90;87.40;;;;;;6156048;23;20400;-89
2023/09/14 09:02:01;;;;;;;1.30;1.20;;;24.90;87.40;;;;;;6156119;23;20404;-88
2023/09/14 09:04:28;;;;;;;1.30;1.13;;;25.00;87.50;;;;;;6156118;23;20898;-88
2023/09/14 09:06:55;;;;;;;1.37;1.27;;;25.00;87.60;;;;;;6156048;23;20404;-88
2023/09/14 09:09:24;;;;;;;1.57;1.30;;;25.00;87.60;;;;;;6156136;23;20542;-89
2023/09/14 09:11:53;;;;;;;2.90;1.57;;;25.00;87.60;;;;;;6156305;23;21150;-88
2023/09/14 09:14:20;;;;;;;1.50;1.27;;;25.00;87.60;;;;;;6156311;23;20495;-88
2023/09/14 09:16:47;;;;;;;1.30;1.13;;;25.00;87.70;;;;;;6156007;23;20482;-88
2023/09/14 09:19:15;;;;;;;1.43;1.33;;;25.00;87.70;;;;;;6156383;23;20411;-89
2023/09/14 09:21:43;;;;;;;1.20;0.90;;;25.00;87.70;;;;;;6156303;23;20410;-88
2023/09/14 09:24:13;;;;;;;1.80;1.17;;;25.00;87.70;;;;;;6156245;23;20404;-89
2023/09/14 09:26:41;;;;;;;1.10;1.00;;;25.00;87.70;;;;;;6156287;23;20443;-88
2023/09/14 09:29:15;;;;;;;1.93;1.00;;;25.00;87.80;;;;;;6155532;23;20509;-89
2023/09/14 09:31:44;;;;;;;1.57;1.20;;;25.10;87.80;;;;;;6156281;23;20441;-89
2023/09/14 09:34:12;;;;;;;1.50;1.17;;;25.20;87.90;;;;;;6155788;23;20494;-88
2023/09/14 09:36:38;;;;;;;1.50;1.23;;;25.10;87.80;;;;;;6156252;23;20450;-88
2023/09/14 09:39:07;;;;;;;1.20;1.10;;;25.10;87.80;;;;;;6155964;23;20428;-88
2023/09/14 09:41:34;;;;;;;1.50;1.23;;;25.10;87.80;;;;;;6156221;23;20434;-88
2023/09/14 09:44:05;;;;;;;1.60;1.20;;;25.10;87.70;;;;;;6155901;23;20723;-88
2023/09/14 09:46:35;;;;;;;1.57;1.37;;;25.10;87.70;;;;;;6156307;23;20475;-89
2023/09/14 09:49:03;;;;;;;1.67;1.00;;;25.10;87.60;;;;;;6156238;23;20752;-89
2023/09/14 09:51:33;;;;;;;1.40;1.07;;;25.10;87.70;;;;;;6156241;23;20466;-88
2023/09/14 09:54:04;;;;;;;1.80;0.93;;;25.10;87.70;;;;;;6155677;23;20411;-89
2023/09/14 09:56:33;;;;;;;1.40;1.00;;;25.20;87.80;;;;;;6156060;23;20406;-88
2023/09/14 09:59:03;;;;;;;1.50;1.20;;;25.20;87.80;;;;;;6156124;23;20400;-88
2023/09/14 10:01:31;;;;;;;1.60;1.23;;;25.20;87.80;;;;;;6156037;23;20403;-88
2023/09/14 10:03:59;;;;;;;1.40;1.20;;;25.20;87.70;;;;;;6156096;23;20439;-88
2023/09/14 10:06:27;;;;;;;1.30;1.10;;;25.20;87.70;;;;;;6155999;23;20438;-89
2023/09/14 10:08:57;;;;;;;1.60;1.20;;;25.20;87.70;;;;;;6155468;23;20487;-89
2023/09/14 10:11:25;;;;;;;1.83;1.27;;;25.20;87.70;;;;;;6157474;23;20408;-89
2023/09/14 10:13:52;;;;;;;1.20;1.00;;;25.20;87.70;;;;;;6157860;23;20465;-88
2023/09/14 10:16:23;;;;;;;1.40;1.30;;;25.20;87.70;;;;;;6157998;23;20408;-89
2023/09/14 10:18:53;;;;;;;1.40;1.20;;;25.20;87.60;;;;;;6157643;23;20875;-89
2023/09/14 10:21:22;;;;;;;1.30;1.00;;;25.20;87.60;;;;;;6157619;23;20470;-89
2023/09/14 10:23:52;;;;;;;1.73;1.63;;;25.20;87.50;;;;;;6157495;23;20498;-88
2023/09/14 10:26:19;;;;;;;1.30;1.20;;;25.30;87.60;;;;;;6157513;23;20914;-89
2023/09/14 10:28:47;;;;;;;1.50;1.17;;;25.30;87.60;;;;;;6157150;23;20534;-89
2023/09/14 10:31:17;;;;;;;2.17;1.30;;;25.30;87.60;;;;;;6157843;23;20410;-89
2023/09/14 10:33:46;;;;;;;1.20;1.03;;;25.30;87.50;;;;;;6157839;23;20491;-89
2023/09/14 10:36:13;;;;;;;1.57;1.10;;;25.30;87.60;;;;;;6157917;23;20400;-89
2023/09/14 10:38:44;;;;;;;1.30;1.20;;;25.30;87.50;;;;;;6157657;23;20424;-89
2023/09/14 10:41:12;;;;;;;1.40;1.30;;;25.30;87.50;;;;;;6157748;23;20751;-88
2023/09/14 10:43:41;;;;;;;1.20;1.00;;;25.40;87.60;;;;;;6157676;23;20484;-89
2023/09/14 10:46:15;;;;;;;1.20;1.00;;;25.30;87.50;;;;;;6157734;23;20410;-89
2023/09/14 10:48:43;;;;;;;1.20;0.93;;;25.30;87.50;;;;;;6157622;23;20756;-89
2023/09/14 10:51:11;;;;;;;1.83;1.20;;;25.30;87.50;;;;;;6157656;23;20483;-88
2023/09/14 10:53:40;;;;;;;2.57;1.27;;;25.30;87.50;;;;;;6156996;23;20411;-89
2023/09/14 10:56:20;;;;;;;2.47;1.30;;;25.30;87.50;;;;;;6157643;23;20400;-88
2023/09/14 10:58:50;;;;;;;1.63;1.20;;;25.40;87.60;;;;;;6157318;23;20400;-89
2023/09/14 11:01:24;;;;;;;1.33;1.23;;;25.40;87.60;;;;;;6157835;23;20400;-89
2023/09/14 11:04:06;;;;;;;2.57;1.33;;;25.40;87.60;;;;;;6157831;23;20392;-88
2023/09/14 11:06:47;;;;;;;1.20;1.10;;;25.40;87.50;;;;;;6157589;23;20393;-89
2023/09/14 11:09:15;;;;;;;1.40;1.23;;;25.40;87.50;;;;;;6157427;23;20503;-89
2023/09/14 11:11:44;;;;;;;1.50;1.20;;;25.40;87.50;;;;;;6157701;23;20403;-88
2023/09/14 11:14:13;;;;;;;1.27;1.17;;;25.40;87.60;;;;;;6157071;23;20393;-88
2023/09/14 11:16:46;;;;;;;1.30;1.10;;;25.40;87.60;;;;;;6157090;23;20404;-89
2023/09/14 11:19:46;;;;;;;1.30;1.10;;;25.40;87.60;;;;;;6157167;23;20440;-88
2023/09/14 11:22:14;;;;;;;1.30;1.10;;;25.40;87.60;;;;;;6156609;23;20483;-88
2023/09/14 11:24:41;;;;;;;1.30;1.20;;;25.30;87.60;;;;;;6157035;23;20788;-88
2023/09/14 11:27:18;;;;;;;1.40;1.10;;;25.40;87.60;;;;;;6157363;23;20479;-88
2023/09/14 11:29:45;;;;;;;1.40;1.10;;;25.40;87.60;;;;;;6156833;23;20526;-89
2023/09/14 11:32:20;;;;;;;1.77;1.40;;;25.40;87.60;;;;;;6156950;23;20411;-89
2023/09/14 11:34:47;;;;;;;1.97;1.10;;;25.40;87.60;;;;;;6157202;23;20387;-89
2023/09/14 11:37:16;;;;;;;1.63;1.33;;;25.40;87.60;;;;;;6156750;23;20884;-88
2023/09/14 11:39:43;;;;;;;1.30;1.20;;;25.40;87.60;;;;;;6156832;23;20408;-89
2023/09/14 11:42:11;;;;;;;2.13;1.53;;;25.40;87.60;;;;;;6157139;23;20454;-88
2023/09/14 11:44:47;;;;;;;1.37;1.07;;;25.40;87.60;;;;;;6157332;23;20393;-88
2023/09/14 11:47:15;;;;;;;1.50;1.20;;;25.40;87.60;;;;;;6157151;23;20396;-89
2023/09/14 11:49:44;;;;;;;1.33;1.23;;;25.40;87.60;;;;;;6156913;23;20452;-88
2023/09/14 11:52:13;;;;;;;1.30;1.00;;;25.40;87.50;;;;;;6157103;23;20792;-88
2023/09/14 11:54:46;;;;;;;1.47;1.20;;;25.40;87.50;;;;;;6156936;23;20467;-89
2023/09/14 11:57:17;;;;;;;1.40;1.27;;;25.40;87.50;;;;;;6157104;23;20840;-88
2023/09/14 11:59:43;;;;;;;1.30;1.10;;;25.40;87.60;;;;;;6156417;23;20412;-88
2023/09/14 12:02:11;;;;;;;1.50;1.30;;;25.40;87.50;;;;;;6157077;23;20403;-89
2023/09/14 12:04:38;;;;;;;1.40;1.10;;;25.40;87.50;;;;;;6157143;23;20414;-89
2023/09/14 12:07:05;;;;;;;2.00;1.33;;;25.40;87.50;;;;;;6156581;23;20435;-89
2023/09/14 12:09:36;;;;;;;2.23;1.30;;;25.40;87.40;;;;;;6156603;23;20761;-88
2023/09/14 12:12:04;;;;;;;1.40;1.20;;;25.40;87.50;;;;;;6156444;23;20400;-88
2023/09/14 12:14:40;;;;;;;1.30;1.17;;;25.40;87.40;;;;;;6156809;23;20434;-88
2023/09/14 12:17:20;;;;;;;1.27;1.10;;;25.40;87.40;;;;;;6156466;23;20965;-88
2023/09/14 12:19:50;;;;;;;1.60;1.13;;;25.40;87.40;;;;;;6156783;23;20403;-89
2023/09/14 12:22:18;;;;;;;1.47;1.27;;;25.40;87.40;;;;;;6156757;23;20451;-88
2023/09/14 12:24:45;;;;;;;1.50;1.07;;;25.40;87.40;;;;;;6156445;23;20776;-89
2023/09/14 12:27:13;;;;;;;1.80;1.40;;;25.40;87.40;;;;;;6156565;23;20396;-89
2023/09/14 12:29:43;;;;;;;1.97;1.40;;;25.40;87.40;;;;;;6156355;23;20443;-89
2023/09/14 12:32:10;;;;;;;1.30;1.20;;;25.40;87.30;;;;;;6156487;23;20451;-89
2023/09/14 12:34:37;;;;;;;1.33;1.23;;;25.40;87.40;;;;;;6156185;23;20891;-89
2023/09/14 12:37:04;;;;;;;1.60;1.03;;;25.40;87.30;;;;;;6156267;23;20904;-89
2023/09/14 12:39:32;;;;;;;1.40;1.13;;;25.40;87.40;;;;;;6156625;23;20783;-88
2023/09/14 12:42:02;;;;;;;1.30;1.13;;;25.40;88.10;;;;;;6156554;23;20896;-88
2023/09/14 12:44:29;;;;;;;1.20;1.00;;;25.40;87.30;;;;;;6156580;23;20403;-88
2023/09/14 12:46:57;;;;;;;1.20;1.07;;;25.40;87.30;;;;;;6156140;23;20410;-88
2023/09/14 12:49:24;;;;;;;1.63;1.20;;;25.40;87.30;;;;;;6157216;23;20446;-89
2023/09/14 12:51:52;;;;;;;1.87;1.17;;;25.40;87.30;;;;;;6156498;23;20438;-88
2023/09/14 12:54:25;;;;;;;1.30;1.17;;;25.40;87.30;;;;;;6156356;23;20490;-89
2023/09/14 12:56:52;;;;;;;1.30;1.20;;;25.50;87.40;;;;;;6156646;23;20762;-89
2023/09/14 12:59:19;;;;;;;1.50;1.30;;;25.40;87.30;;;;;;6156317;23;20400;-88